Time;durP1;ratioP1;P1;durP2;ratioP2;P2;SDS_P1;SDS_P2;PMS_P1;PMS_P2;Temp;Humidity;BMP_temperature;BMP_pressure;BME280_temperature;BME280_humidity;BME280_pressure;Samples;Min_cycle;Max_cycle;Signal;HPM_P1;HPM_P2
2023/10/24 00:00:12;;;;;;;1.75;1.15;;;16.80;69.60;;;;;;5049013;28;20032;-71
2023/10/24 00:02:38;;;;;;;0.40;0.40;;;16.80;69.60;;;;;;5049877;28;20025;-72
2023/10/24 00:05:05;;;;;;;0.50;0.50;;;16.80;69.70;;;;;;5050931;28;20033;-72
2023/10/24 00:07:30;;;;;;;1.95;0.70;;;16.80;69.80;;;;;;5051618;28;20096;-71
2023/10/24 00:09:56;;;;;;;0.38;0.38;;;16.80;69.70;;;;;;5047216;28;20729;-71
2023/10/24 00:12:21;;;;;;;0.40;0.40;;;16.90;69.60;;;;;;5050048;28;20043;-72
2023/10/24 00:14:47;;;;;;;0.40;0.40;;;16.90;69.70;;;;;;5051713;28;20032;-71
2023/10/24 00:17:12;;;;;;;0.40;0.40;;;16.90;69.60;;;;;;5051554;28;20048;-72
2023/10/24 00:19:38;;;;;;;0.40;0.40;;;16.90;69.70;;;;;;5048247;28;20053;-71
2023/10/24 00:22:03;;;;;;;0.38;0.38;;;16.90;69.70;;;;;;5049894;28;20033;-73
2023/10/24 00:24:29;;;;;;;0.40;0.40;;;16.90;69.80;;;;;;5050192;28;20394;-71
2023/10/24 00:26:55;;;;;;;0.40;0.40;;;17.00;69.80;;;;;;5049644;28;20037;-72
2023/10/24 00:29:21;;;;;;;0.50;0.50;;;17.00;69.80;;;;;;5048093;28;20029;-72
2023/10/24 00:31:47;;;;;;;0.85;0.77;;;17.00;69.90;;;;;;5051022;28;20033;-71
2023/10/24 00:34:12;;;;;;;0.75;0.75;;;17.00;69.80;;;;;;5049381;28;20098;-72
2023/10/24 00:36:40;;;;;;;0.40;0.40;;;17.00;69.90;;;;;;5051249;28;20104;-72
2023/10/24 00:39:06;;;;;;;0.40;0.40;;;17.00;69.90;;;;;;5048430;28;20380;-72
2023/10/24 00:41:31;;;;;;;0.50;0.50;;;17.00;69.80;;;;;;5051185;28;20029;-72
2023/10/24 00:43:57;;;;;;;0.40;0.40;;;17.00;69.90;;;;;;5048024;28;20498;-72
2023/10/24 00:46:23;;;;;;;0.57;0.57;;;17.00;69.90;;;;;;5050905;28;20362;-72
2023/10/24 00:48:49;;;;;;;0.35;0.35;;;17.00;70.00;;;;;;5047783;28;20488;-72
2023/10/24 00:51:16;;;;;;;0.40;0.40;;;17.00;70.00;;;;;;5051101;28;20040;-71
2023/10/24 00:53:41;;;;;;;0.40;0.40;;;17.10;69.90;;;;;;5049150;28;20033;-72
2023/10/24 00:56:08;;;;;;;0.40;0.40;;;17.00;70.00;;;;;;5051002;28;20404;-71
2023/10/24 00:58:36;;;;;;;0.47;0.47;;;17.10;70.00;;;;;;5047470;28;20450;-72
2023/10/24 01:01:06;;;;;;;0.68;0.68;;;17.10;70.00;;;;;;5049828;28;20028;-72
2023/10/24 01:03:31;;;;;;;0.50;0.50;;;17.10;70.00;;;;;;5049247;28;20029;-72
2023/10/24 01:05:58;;;;;;;0.40;0.40;;;17.10;69.90;;;;;;5050430;28;20103;-72
2023/10/24 01:08:23;;;;;;;0.40;0.40;;;17.10;69.90;;;;;;5047761;28;20086;-71
2023/10/24 01:10:49;;;;;;;0.50;0.50;;;17.10;69.80;;;;;;5050652;28;20037;-71
2023/10/24 01:13:15;;;;;;;0.30;0.30;;;17.00;69.80;;;;;;5047821;28;20029;-72
2023/10/24 01:15:41;;;;;;;0.40;0.40;;;17.00;69.70;;;;;;5051520;28;20029;-71
2023/10/24 01:18:07;;;;;;;1.85;0.80;;;17.00;69.60;;;;;;5054193;28;20087;-73
2023/10/24 01:20:32;;;;;;;0.38;0.38;;;17.00;69.70;;;;;;5052453;28;20118;-72
2023/10/24 01:22:58;;;;;;;0.40;0.40;;;16.90;69.70;;;;;;5052971;28;20020;-72
2023/10/24 01:25:24;;;;;;;0.50;0.50;;;16.80;69.60;;;;;;5053755;28;20037;-72
2023/10/24 01:27:53;;;;;;;0.40;0.40;;;16.80;69.50;;;;;;5053220;28;20489;-71
2023/10/24 01:30:19;;;;;;;0.82;0.82;;;16.80;69.70;;;;;;5051163;28;20380;-72
2023/10/24 01:32:45;;;;;;;0.40;0.40;;;16.70;69.60;;;;;;5052706;28;20033;-73
2023/10/24 01:35:12;;;;;;;0.47;0.47;;;16.70;69.70;;;;;;5054826;28;20115;-71
2023/10/24 01:37:38;;;;;;;0.40;0.40;;;16.60;69.80;;;;;;5054094;28;20021;-72
2023/10/24 01:40:04;;;;;;;0.47;0.47;;;16.60;70.00;;;;;;5051861;28;20032;-71
2023/10/24 01:42:30;;;;;;;0.50;0.50;;;16.60;70.00;;;;;;5052320;28;20086;-71
2023/10/24 01:44:55;;;;;;;0.40;0.40;;;16.50;70.10;;;;;;5054334;28;20033;-71
2023/10/24 01:47:21;;;;;;;0.40;0.40;;;16.50;70.30;;;;;;5054313;28;20044;-71
2023/10/24 01:49:46;;;;;;;0.50;0.50;;;16.50;70.40;;;;;;5051155;28;20056;-71
2023/10/24 01:52:12;;;;;;;0.80;0.80;;;16.60;70.40;;;;;;5052801;28;20107;-72
2023/10/24 01:54:37;;;;;;;0.50;0.50;;;16.60;70.40;;;;;;5054117;28;20508;-71
2023/10/24 01:57:03;;;;;;;0.40;0.40;;;16.60;70.50;;;;;;5053897;28;20036;-71
2023/10/24 01:59:29;;;;;;;0.40;0.40;;;16.70;70.60;;;;;;5050880;28;20024;-71
2023/10/24 02:01:54;;;;;;;0.50;0.50;;;16.70;70.60;;;;;;5053586;28;20032;-73
2023/10/24 02:04:20;;;;;;;0.40;0.40;;;16.70;70.60;;;;;;5052266;28;20037;-71
2023/10/24 02:06:45;;;;;;;0.40;0.40;;;16.70;70.70;;;;;;5054185;28;20059;-70
2023/10/24 02:09:11;;;;;;;0.40;0.40;;;16.80;70.60;;;;;;5050960;28;20452;-71
2023/10/24 02:11:36;;;;;;;1.48;0.70;;;16.80;70.50;;;;;;5053997;28;20166;-71
2023/10/24 02:14:04;;;;;;;0.40;0.40;;;16.90;70.40;;;;;;5052040;28;20473;-70
2023/10/24 02:16:29;;;;;;;0.73;0.73;;;16.90;70.50;;;;;;5053471;28;20028;-70
2023/10/24 02:18:55;;;;;;;0.38;0.38;;;16.90;70.50;;;;;;5049217;28;20179;-72
2023/10/24 02:21:20;;;;;;;0.40;0.40;;;17.00;70.40;;;;;;5053892;28;20022;-71
2023/10/24 02:23:46;;;;;;;0.43;0.43;;;17.00;70.40;;;;;;5051993;28;20032;-70
2023/10/24 02:26:15;;;;;;;0.40;0.40;;;17.00;70.50;;;;;;5051772;28;20090;-70
2023/10/24 02:28:41;;;;;;;0.40;0.40;;;17.00;70.60;;;;;;5049776;28;20033;-69
2023/10/24 02:31:07;;;;;;;0.40;0.40;;;17.00;70.60;;;;;;5051928;28;20049;-70
2023/10/24 02:33:33;;;;;;;0.30;0.30;;;17.00;70.60;;;;;;5051676;28;20068;-69
2023/10/24 02:36:11;;;;;;;0.35;0.35;;;17.10;70.50;;;;;;5052837;28;20060;-70
2023/10/24 02:38:37;;;;;;;0.45;0.45;;;17.10;70.30;;;;;;5050281;28;20064;-69
2023/10/24 02:41:04;;;;;;;0.40;0.40;;;17.10;70.40;;;;;;5053037;28;20032;-70
2023/10/24 02:43:29;;;;;;;0.40;0.40;;;17.10;70.40;;;;;;5051615;28;20029;-69
2023/10/24 02:45:57;;;;;;;0.60;0.60;;;17.20;70.30;;;;;;5052886;28;20031;-72
2023/10/24 02:48:23;;;;;;;0.55;0.55;;;17.20;70.30;;;;;;5051560;28;20041;-71
2023/10/24 02:50:53;;;;;;;0.50;0.50;;;17.20;70.40;;;;;;5051992;28;20563;-70
2023/10/24 02:53:18;;;;;;;0.40;0.40;;;17.10;70.30;;;;;;5051674;28;20021;-69
2023/10/24 02:55:44;;;;;;;0.38;0.38;;;17.10;70.30;;;;;;5052611;28;20373;-69
2023/10/24 02:58:09;;;;;;;0.60;0.60;;;17.10;70.20;;;;;;5051827;28;20477;-71
2023/10/24 03:00:35;;;;;;;0.40;0.40;;;17.10;70.10;;;;;;5050714;28;20043;-69
2023/10/24 03:03:01;;;;;;;0.50;0.50;;;17.00;69.80;;;;;;5051520;28;20025;-71
2023/10/24 03:05:26;;;;;;;0.40;0.40;;;16.90;69.50;;;;;;5052934;28;20500;-70
2023/10/24 03:07:52;;;;;;;0.40;0.40;;;16.90;69.30;;;;;;5050446;28;20029;-70
2023/10/24 03:10:18;;;;;;;0.43;0.43;;;16.80;69.60;;;;;;5048179;28;20033;-69
2023/10/24 03:12:43;;;;;;;0.38;0.38;;;16.80;69.90;;;;;;5050828;28;20431;-69
2023/10/24 03:15:09;;;;;;;0.60;0.60;;;16.80;70.20;;;;;;5052551;28;20384;-70
2023/10/24 03:17:35;;;;;;;0.63;0.63;;;16.80;70.30;;;;;;5052255;28;20093;-69
2023/10/24 03:20:00;;;;;;;0.40;0.40;;;16.80;70.60;;;;;;5049437;28;20025;-72
2023/10/24 03:22:26;;;;;;;0.40;0.40;;;16.80;70.70;;;;;;5051240;28;20045;-69
2023/10/24 03:24:51;;;;;;;0.40;0.40;;;16.80;70.80;;;;;;5052602;28;20025;-70
2023/10/24 03:27:17;;;;;;;0.50;0.50;;;16.90;70.80;;;;;;5050645;28;20104;-70
2023/10/24 03:29:43;;;;;;;0.40;0.40;;;16.90;70.80;;;;;;5049228;28;20075;-69
2023/10/24 03:32:09;;;;;;;0.38;0.38;;;16.90;70.80;;;;;;5051286;28;20109;-71
2023/10/24 03:34:38;;;;;;;0.50;0.50;;;17.00;70.70;;;;;;5051729;28;20460;-70
2023/10/24 03:37:04;;;;;;;0.40;0.40;;;17.00;70.80;;;;;;5052030;28;20456;-70
2023/10/24 03:39:29;;;;;;;0.40;0.40;;;17.00;70.70;;;;;;5047979;28;20079;-70
2023/10/24 03:41:55;;;;;;;0.40;0.40;;;17.00;70.80;;;;;;5050529;28;20033;-70
2023/10/24 03:44:24;;;;;;;0.30;0.30;;;17.10;70.70;;;;;;5050308;28;20029;-71
2023/10/24 03:46:50;;;;;;;0.40;0.40;;;17.10;70.70;;;;;;5050398;28;20029;-70
2023/10/24 03:49:16;;;;;;;0.47;0.47;;;17.10;70.60;;;;;;5048702;28;20052;-70
2023/10/24 03:51:42;;;;;;;0.40;0.40;;;17.10;70.70;;;;;;5052277;28;20041;-70
2023/10/24 03:54:07;;;;;;;0.40;0.40;;;17.20;70.60;;;;;;5050013;28;20056;-70
2023/10/24 03:56:33;;;;;;;0.30;0.30;;;17.20;70.60;;;;;;5051804;28;20037;-69
2023/10/24 03:58:59;;;;;;;0.40;0.40;;;17.20;70.60;;;;;;5047270;28;20469;-70
2023/10/24 04:01:25;;;;;;;0.40;0.40;;;17.20;70.50;;;;;;5051755;28;20104;-69
2023/10/24 04:03:50;;;;;;;0.40;0.40;;;17.20;70.60;;;;;;5050216;28;20031;-70
2023/10/24 04:06:17;;;;;;;0.50;0.50;;;17.30;70.60;;;;;;5051410;28;20039;-70
2023/10/24 04:08:42;;;;;;;0.40;0.40;;;17.20;70.60;;;;;;5048559;28;20443;-70
2023/10/24 04:11:15;;;;;;;0.40;0.40;;;17.30;70.60;;;;;;5051426;28;20082;-67
2023/10/24 04:13:41;;;;;;;0.30;0.30;;;17.20;70.60;;;;;;5050165;28;20538;-70
2023/10/24 04:16:06;;;;;;;0.50;0.50;;;17.30;70.60;;;;;;5051364;28;20037;-67
2023/10/24 04:18:32;;;;;;;0.40;0.40;;;17.30;70.60;;;;;;5049654;28;20631;-70
2023/10/24 04:20:57;;;;;;;0.40;0.40;;;17.30;70.60;;;;;;5050195;28;20468;-68
2023/10/24 04:23:23;;;;;;;0.40;0.40;;;17.30;70.70;;;;;;5049703;28;20119;-69
2023/10/24 04:25:48;;;;;;;0.30;0.30;;;17.30;70.60;;;;;;5048238;28;20029;-68
2023/10/24 04:28:15;;;;;;;0.38;0.38;;;17.30;70.60;;;;;;5049462;28;20029;-68
2023/10/24 04:30:41;;;;;;;0.50;0.50;;;17.30;70.60;;;;;;5047661;28;20052;-67
2023/10/24 04:33:10;;;;;;;0.40;0.40;;;17.30;70.60;;;;;;5049358;28;20025;-70
2023/10/24 04:35:50;;;;;;;0.40;0.40;;;17.30;70.60;;;;;;5051233;28;20040;-68
2023/10/24 04:38:17;;;;;;;0.55;0.55;;;17.30;70.60;;;;;;5049106;28;20025;-70
2023/10/24 04:40:43;;;;;;;0.40;0.40;;;17.30;70.60;;;;;;5049862;28;20060;-69
2023/10/24 04:43:11;;;;;;;0.80;0.80;;;17.30;70.60;;;;;;5049082;28;20468;-70
2023/10/24 04:45:37;;;;;;;0.50;0.50;;;17.40;70.60;;;;;;5051152;28;20048;-67
2023/10/24 04:48:03;;;;;;;0.50;0.50;;;17.40;70.50;;;;;;5050823;28;20056;-68
2023/10/24 04:50:29;;;;;;;0.50;0.50;;;17.40;70.60;;;;;;5047318;28;20477;-68
2023/10/24 04:52:58;;;;;;;0.45;0.45;;;17.40;70.50;;;;;;5049166;28;20435;-69
2023/10/24 04:55:23;;;;;;;0.40;0.40;;;17.40;70.50;;;;;;5051052;28;20049;-71
2023/10/24 04:57:49;;;;;;;0.60;0.60;;;17.40;70.50;;;;;;5050830;28;20445;-68
2023/10/24 05:00:15;;;;;;;0.40;0.40;;;17.40;70.50;;;;;;5046531;28;20029;-68
2023/10/24 05:02:43;;;;;;;0.40;0.40;;;17.40;70.40;;;;;;5049256;28;20385;-74
2023/10/24 05:05:10;;;;;;;0.40;0.40;;;17.40;70.50;;;;;;5050747;28;20060;-74
2023/10/24 05:07:36;;;;;;;0.40;0.40;;;17.40;70.40;;;;;;5050424;28;20469;-76
2023/10/24 05:10:03;;;;;;;0.50;0.50;;;17.40;70.40;;;;;;5047606;28;20488;-75
2023/10/24 05:12:28;;;;;;;0.40;0.40;;;17.40;70.50;;;;;;5048831;28;20493;-74
2023/10/24 05:14:54;;;;;;;0.43;0.43;;;17.40;70.40;;;;;;5050587;28;20028;-73
2023/10/24 05:17:19;;;;;;;0.50;0.50;;;17.40;70.40;;;;;;5050952;28;20029;-74
2023/10/24 05:19:45;;;;;;;0.40;0.40;;;17.40;70.40;;;;;;5047619;28;20108;-73
2023/10/24 05:22:11;;;;;;;0.40;0.40;;;17.40;70.40;;;;;;5049706;28;20078;-73
2023/10/24 05:24:38;;;;;;;0.40;0.40;;;17.40;70.30;;;;;;5050606;28;20033;-74
2023/10/24 05:27:04;;;;;;;0.30;0.30;;;17.40;70.40;;;;;;5048237;28;20033;-74
2023/10/24 05:29:32;;;;;;;0.47;0.47;;;17.40;70.30;;;;;;5046225;28;20119;-74
2023/10/24 05:31:57;;;;;;;0.50;0.50;;;17.40;70.30;;;;;;5050643;28;20060;-73
2023/10/24 05:34:26;;;;;;;0.43;0.43;;;17.40;70.40;;;;;;5049215;28;20064;-73
2023/10/24 05:36:52;;;;;;;0.40;0.40;;;17.40;70.30;;;;;;5050658;28;20082;-74
2023/10/24 05:39:19;;;;;;;0.38;0.38;;;17.50;70.40;;;;;;5047389;28;20029;-74
2023/10/24 05:41:45;;;;;;;0.40;0.40;;;17.40;70.30;;;;;;5050573;28;20032;-74
2023/10/24 05:44:11;;;;;;;0.40;0.40;;;17.50;70.30;;;;;;5048857;28;20078;-74
2023/10/24 05:46:36;;;;;;;0.40;0.40;;;17.50;70.20;;;;;;5048700;28;20036;-75
2023/10/24 05:49:02;;;;;;;0.40;0.40;;;17.50;70.20;;;;;;5047304;28;20051;-75
2023/10/24 05:51:29;;;;;;;0.40;0.40;;;17.50;70.30;;;;;;5050667;28;20604;-75
2023/10/24 05:53:55;;;;;;;0.45;0.45;;;17.50;70.10;;;;;;5048806;28;20025;-75
2023/10/24 05:56:21;;;;;;;0.55;0.55;;;17.50;70.10;;;;;;5050444;28;20028;-76
2023/10/24 05:58:46;;;;;;;0.50;0.50;;;17.50;70.20;;;;;;5046787;28;20025;-73
2023/10/24 06:01:12;;;;;;;0.60;0.60;;;17.60;70.20;;;;;;5036218;28;20025;-75
2023/10/24 06:03:38;;;;;;;0.30;0.30;;;17.50;70.20;;;;;;5049871;28;20120;-76
2023/10/24 06:06:03;;;;;;;0.60;0.60;;;17.60;70.10;;;;;;5054150;28;20025;-75
2023/10/24 06:08:29;;;;;;;0.40;0.40;;;17.60;70.00;;;;;;5051658;28;21304;-75
2023/10/24 06:11:00;;;;;;;0.57;0.52;;;17.60;70.10;;;;;;5052259;28;20067;-73
2023/10/24 06:13:25;;;;;;;0.50;0.50;;;17.60;69.90;;;;;;5052208;28;20040;-75
2023/10/24 06:15:52;;;;;;;0.88;0.73;;;17.60;70.10;;;;;;5053763;28;20438;-75
2023/10/24 06:18:19;;;;;;;0.57;0.57;;;17.60;70.10;;;;;;5051117;28;20112;-75
2023/10/24 06:20:45;;;;;;;0.50;0.50;;;17.60;70.20;;;;;;5051085;28;20108;-75
2023/10/24 06:23:11;;;;;;;0.50;0.50;;;17.60;70.30;;;;;;5047311;28;20030;-75
2023/10/24 06:25:38;;;;;;;0.40;0.40;;;17.70;70.30;;;;;;5035274;28;20029;-75
2023/10/24 06:28:04;;;;;;;0.40;0.40;;;17.70;70.30;;;;;;5032075;28;20479;-75
2023/10/24 06:30:33;;;;;;;0.40;0.40;;;17.70;70.20;;;;;;5040407;28;20108;-73
2023/10/24 06:32:59;;;;;;;0.55;0.55;;;17.70;70.10;;;;;;5038915;28;20037;-74
2023/10/24 06:35:25;;;;;;;0.47;0.47;;;17.70;70.10;;;;;;5037214;28;20052;-74
2023/10/24 06:37:51;;;;;;;0.40;0.40;;;17.70;70.20;;;;;;5047478;28;20127;-73
2023/10/24 06:40:17;;;;;;;0.43;0.43;;;17.70;70.10;;;;;;5049244;28;20053;-74
2023/10/24 06:42:44;;;;;;;0.65;0.65;;;17.60;70.00;;;;;;5050768;28;20021;-74
2023/10/24 06:45:10;;;;;;;0.40;0.40;;;17.60;70.00;;;;;;5034602;28;20033;-74
2023/10/24 06:47:37;;;;;;;0.45;0.45;;;17.60;70.10;;;;;;5050458;28;20184;-74
2023/10/24 06:50:02;;;;;;;0.40;0.40;;;17.60;70.10;;;;;;5047524;28;20355;-74
2023/10/24 06:52:28;;;;;;;0.52;0.52;;;17.50;70.00;;;;;;5050250;28;20041;-74
2023/10/24 06:54:54;;;;;;;0.60;0.60;;;17.50;70.10;;;;;;5052960;28;20026;-74
2023/10/24 06:57:19;;;;;;;0.90;0.82;;;17.50;70.20;;;;;;5051157;28;20029;-73
2023/10/24 06:59:45;;;;;;;0.40;0.40;;;17.50;70.30;;;;;;5047496;28;20037;-74
2023/10/24 07:02:10;;;;;;;0.40;0.40;;;17.60;70.30;;;;;;5050655;28;20025;-74
2023/10/24 07:04:36;;;;;;;0.43;0.43;;;17.60;70.40;;;;;;5038956;28;20041;-74
2023/10/24 07:07:01;;;;;;;0.40;0.40;;;17.60;70.30;;;;;;5045426;28;20083;-73
2023/10/24 07:09:27;;;;;;;0.55;0.55;;;17.70;70.10;;;;;;5046508;28;20038;-73
2023/10/24 07:11:52;;;;;;;0.50;0.50;;;17.70;70.20;;;;;;5052650;28;20124;-73
2023/10/24 07:14:18;;;;;;;0.50;0.50;;;17.70;70.20;;;;;;5050305;28;20385;-73
2023/10/24 07:16:43;;;;;;;0.50;0.50;;;17.80;70.30;;;;;;5049245;28;20025;-73
2023/10/24 07:19:10;;;;;;;0.38;0.38;;;17.80;70.20;;;;;;5050718;28;20052;-74
2023/10/24 07:21:35;;;;;;;0.40;0.40;;;17.80;70.30;;;;;;5050283;28;20044;-69
2023/10/24 07:24:01;;;;;;;0.50;0.50;;;17.90;70.10;;;;;;5050258;28;20025;-69
2023/10/24 07:26:27;;;;;;;0.50;0.50;;;17.90;69.90;;;;;;5050521;28;20116;-69
2023/10/24 07:28:53;;;;;;;0.80;0.80;;;17.90;69.90;;;;;;5040677;28;20090;-69
2023/10/24 07:31:19;;;;;;;0.60;0.60;;;18.00;69.80;;;;;;5049666;28;20111;-69
2023/10/24 07:33:46;;;;;;;0.98;0.80;;;18.00;69.90;;;;;;5050413;28;20113;-70
2023/10/24 07:36:11;;;;;;;0.50;0.50;;;18.10;69.90;;;;;;5050852;28;20075;-69
2023/10/24 07:38:38;;;;;;;0.50;0.50;;;18.10;69.60;;;;;;5040856;28;20025;-69
2023/10/24 07:41:04;;;;;;;0.50;0.50;;;18.10;69.70;;;;;;5050271;28;20418;-69
2023/10/24 07:43:30;;;;;;;0.40;0.40;;;18.20;69.60;;;;;;5049870;28;20029;-71
2023/10/24 07:45:55;;;;;;;0.40;0.40;;;18.20;69.60;;;;;;5050578;28;20025;-71
2023/10/24 07:48:21;;;;;;;0.40;0.40;;;18.20;69.40;;;;;;5042587;28;20025;-70
2023/10/24 07:50:53;;;;;;;0.50;0.50;;;18.20;69.40;;;;;;5050326;28;20167;-70
2023/10/24 07:53:22;;;;;;;0.40;0.40;;;18.30;69.50;;;;;;5049182;28;20037;-69
2023/10/24 07:55:48;;;;;;;0.40;0.40;;;18.20;69.30;;;;;;5051336;28;20389;-70
2023/10/24 07:58:17;;;;;;;0.82;0.82;;;18.30;69.40;;;;;;5048573;28;20024;-71
2023/10/24 08:00:44;;;;;;;0.40;0.40;;;18.30;69.40;;;;;;5045144;28;20563;-70
2023/10/24 08:03:13;;;;;;;0.73;0.73;;;18.30;69.30;;;;;;5048502;28;20400;-70
2023/10/24 08:05:39;;;;;;;0.50;0.50;;;18.40;69.10;;;;;;5049660;28;20037;-70
2023/10/24 08:08:05;;;;;;;0.88;0.88;;;18.40;69.20;;;;;;5051383;28;20357;-70
2023/10/24 08:10:32;;;;;;;0.60;0.60;;;18.40;69.10;;;;;;5044748;28;20037;-69
2023/10/24 08:12:58;;;;;;;0.47;0.47;;;18.40;69.10;;;;;;5048048;28;20068;-69
2023/10/24 08:15:24;;;;;;;0.40;0.40;;;18.40;69.20;;;;;;5040238;28;20094;-70
2023/10/24 08:17:51;;;;;;;0.40;0.40;;;18.40;69.00;;;;;;5050390;28;20100;-69
2023/10/24 08:20:17;;;;;;;0.50;0.50;;;18.40;68.90;;;;;;5046954;28;20163;-69
2023/10/24 08:22:43;;;;;;;0.40;0.40;;;18.40;68.80;;;;;;5049221;28;20044;-70
2023/10/24 08:25:09;;;;;;;0.50;0.50;;;18.30;68.70;;;;;;5036462;28;20029;-70
2023/10/24 08:27:34;;;;;;;0.40;0.40;;;18.30;68.70;;;;;;5046165;28;20035;-69
2023/10/24 08:30:00;;;;;;;0.50;0.50;;;18.30;68.70;;;;;;5046570;28;20021;-70
2023/10/24 08:32:26;;;;;;;0.45;0.45;;;18.30;68.80;;;;;;5049621;28;21707;-74
2023/10/24 08:34:51;;;;;;;1.67;1.00;;;18.30;68.80;;;;;;5048621;28;20025;-74
2023/10/24 08:37:17;;;;;;;0.40;0.40;;;18.30;69.00;;;;;;5045411;28;20033;-74
2023/10/24 08:39:43;;;;;;;0.30;0.30;;;18.40;69.30;;;;;;5041413;28;20064;-74
2023/10/24 08:42:13;;;;;;;0.45;0.45;;;18.40;69.50;;;;;;5049915;28;20025;-74
2023/10/24 08:44:40;;;;;;;0.40;0.40;;;18.40;69.50;;;;;;5030902;28;20029;-74
2023/10/24 08:47:07;;;;;;;0.50;0.50;;;18.50;69.70;;;;;;5042738;28;20049;-75
2023/10/24 08:49:36;;;;;;;0.40;0.40;;;18.60;69.70;;;;;;5047661;28;20045;-74
2023/10/24 08:52:02;;;;;;;0.40;0.40;;;18.70;69.60;;;;;;5050819;28;20461;-73
2023/10/24 08:54:27;;;;;;;0.45;0.45;;;18.80;69.30;;;;;;5048453;28;20075;-76
2023/10/24 08:56:54;;;;;;;0.52;0.52;;;18.90;68.80;;;;;;5049387;28;20034;-74
2023/10/24 08:59:20;;;;;;;0.50;0.50;;;19.00;69.00;;;;;;5046742;28;20107;-75
2023/10/24 09:01:48;;;;;;;0.60;0.60;;;19.10;68.80;;;;;;5042969;28;20037;-74
2023/10/24 09:04:15;;;;;;;0.40;0.40;;;19.20;68.80;;;;;;5047206;28;20025;-74
2023/10/24 09:06:40;;;;;;;0.50;0.50;;;19.20;67.70;;;;;;5050516;28;20044;-74
2023/10/24 09:09:06;;;;;;;0.40;0.40;;;19.20;67.60;;;;;;5048623;28;20033;-73
2023/10/24 09:11:58;;;;;;;0.47;0.47;;;19.20;67.10;;;;;;5048919;28;20033;-74
2023/10/24 09:14:25;;;;;;;0.60;0.60;;;19.20;66.90;;;;;;5047563;28;20113;-74
2023/10/24 09:17:11;;;;;;;0.70;0.70;;;19.20;66.50;;;;;;5048403;28;20155;-74
2023/10/24 09:19:40;;;;;;;0.50;0.50;;;19.20;66.00;;;;;;5047308;28;20021;-74
2023/10/24 09:22:05;;;;;;;0.60;0.60;;;19.10;66.40;;;;;;5049245;28;20473;-73
2023/10/24 09:24:31;;;;;;;0.60;0.60;;;19.10;66.30;;;;;;5049777;28;20025;-75
2023/10/24 09:26:59;;;;;;;0.50;0.50;;;19.10;66.80;;;;;;5041136;28;20033;-74
2023/10/24 09:29:27;;;;;;;0.40;0.40;;;19.10;66.40;;;;;;5045261;28;20041;-74
2023/10/24 09:31:53;;;;;;;0.60;0.60;;;19.00;65.90;;;;;;5044509;28;20043;-73
2023/10/24 09:34:19;;;;;;;0.47;0.47;;;19.00;66.60;;;;;;5047832;28;20033;-74
2023/10/24 09:36:45;;;;;;;0.70;0.70;;;18.90;66.60;;;;;;5040841;28;20079;-74
2023/10/24 09:39:12;;;;;;;0.40;0.40;;;18.90;66.00;;;;;;5041434;28;20079;-73
2023/10/24 09:41:40;;;;;;;0.30;0.30;;;18.80;66.20;;;;;;5043478;28;20037;-69
2023/10/24 09:44:07;;;;;;;0.47;0.47;;;18.80;66.00;;;;;;5042947;28;20489;-70
2023/10/24 09:46:35;;;;;;;0.50;0.50;;;18.80;66.30;;;;;;5042963;28;20033;-70
2023/10/24 09:49:01;;;;;;;0.50;0.50;;;18.80;66.60;;;;;;5051199;28;20496;-70
2023/10/24 09:51:27;;;;;;;0.50;0.50;;;18.80;66.70;;;;;;5052222;28;20048;-70
2023/10/24 09:53:53;;;;;;;0.43;0.43;;;18.90;66.90;;;;;;5044121;28;20393;-70
2023/10/24 09:56:20;;;;;;;0.40;0.40;;;18.90;67.00;;;;;;5039559;28;20025;-70
2023/10/24 09:58:46;;;;;;;0.50;0.50;;;19.00;66.40;;;;;;5051008;28;20472;-70
2023/10/24 10:01:12;;;;;;;0.40;0.40;;;19.10;66.40;;;;;;5051836;28;20029;-70
2023/10/24 10:03:38;;;;;;;0.50;0.50;;;19.00;66.70;;;;;;5052276;28;20049;-69
2023/10/24 10:06:08;;;;;;;0.40;0.40;;;19.10;66.20;;;;;;5041595;28;20059;-70
2023/10/24 10:08:36;;;;;;;0.40;0.40;;;19.00;66.70;;;;;;5051912;28;20033;-70
2023/10/24 10:11:04;;;;;;;0.40;0.40;;;19.00;66.30;;;;;;5046910;28;20032;-69
2023/10/24 10:13:32;;;;;;;0.55;0.55;;;19.10;66.40;;;;;;5045225;28;20079;-70
2023/10/24 10:16:21;;;;;;;0.35;0.35;;;19.10;66.20;;;;;;5037181;28;20503;-71
2023/10/24 10:18:50;;;;;;;0.30;0.30;;;19.10;66.40;;;;;;5043380;28;20025;-71
2023/10/24 10:21:43;;;;;;;0.40;0.40;;;19.20;66.50;;;;;;5051133;28;20472;-70
2023/10/24 10:24:43;;;;;;;0.50;0.50;;;19.20;66.20;;;;;;5051537;28;20078;-70
2023/10/24 10:27:28;;;;;;;0.40;0.40;;;19.30;66.40;;;;;;5049862;28;20503;-71
2023/10/24 10:29:59;;;;;;;3.40;0.88;;;19.40;66.10;;;;;;5048955;28;20048;-70
2023/10/24 10:32:54;;;;;;;1.17;0.95;;;19.50;66.20;;;;;;5045564;28;20068;-70
2023/10/24 10:35:20;;;;;;;0.43;0.43;;;19.60;65.40;;;;;;5047165;28;20049;-70
2023/10/24 10:38:04;;;;;;;0.50;0.50;;;19.60;65.20;;;;;;5051728;28;20032;-70
2023/10/24 10:40:30;;;;;;;0.40;0.40;;;19.70;65.70;;;;;;5037763;28;20163;-71
2023/10/24 10:42:55;;;;;;;0.47;0.47;;;19.70;65.40;;;;;;5032683;28;20143;-71
2023/10/24 10:45:29;;;;;;;0.45;0.45;;;19.80;64.80;;;;;;5033308;28;20021;-69
2023/10/24 10:47:59;;;;;;;1.20;0.88;;;19.90;64.80;;;;;;5032582;28;20025;-69
2023/10/24 10:50:29;;;;;;;0.50;0.50;;;20.00;64.50;;;;;;5052761;28;20488;-69
2023/10/24 10:53:09;;;;;;;0.40;0.40;;;20.00;64.20;;;;;;5049866;28;20029;-72
2023/10/24 10:55:59;;;;;;;0.40;0.40;;;20.00;64.40;;;;;;5053471;28;20051;-72
2023/10/24 10:58:30;;;;;;;0.47;0.47;;;20.10;64.50;;;;;;5040818;28;20025;-73
2023/10/24 11:01:03;;;;;;;0.50;0.50;;;20.20;63.40;;;;;;5032902;28;20107;-72
2023/10/24 11:03:44;;;;;;;0.43;0.43;;;20.20;63.30;;;;;;5032187;28;20404;-74
2023/10/24 11:06:11;;;;;;;0.50;0.50;;;20.20;63.20;;;;;;5032981;28;20378;-73
2023/10/24 11:08:36;;;;;;;0.40;0.40;;;20.20;63.00;;;;;;5033300;28;20504;-74
2023/10/24 11:11:02;;;;;;;0.52;0.52;;;20.20;63.30;;;;;;5049264;28;20029;-73
2023/10/24 11:13:41;;;;;;;0.50;0.50;;;20.30;63.60;;;;;;5039130;28;20084;-73
2023/10/24 11:16:12;;;;;;;0.40;0.40;;;20.30;62.70;;;;;;5032830;28;20094;-73
2023/10/24 11:18:38;;;;;;;0.50;0.50;;;20.30;62.20;;;;;;5040023;28;20027;-73
2023/10/24 11:21:07;;;;;;;0.40;0.40;;;20.30;61.80;;;;;;5041250;28;20037;-74
2023/10/24 11:23:33;;;;;;;0.50;0.50;;;20.30;62.20;;;;;;5035556;28;20437;-74
2023/10/24 11:26:00;;;;;;;0.40;0.40;;;20.30;61.80;;;;;;5046482;28;20136;-74
2023/10/24 11:28:27;;;;;;;0.50;0.50;;;20.30;60.90;;;;;;5042271;28;20029;-73
2023/10/24 11:30:54;;;;;;;0.40;0.40;;;20.20;60.30;;;;;;5052669;28;20056;-74
2023/10/24 11:33:20;;;;;;;0.40;0.40;;;20.20;60.40;;;;;;5042187;28;20021;-74
2023/10/24 11:35:46;;;;;;;0.40;0.40;;;20.20;60.80;;;;;;5031667;28;20037;-72
2023/10/24 11:38:14;;;;;;;0.50;0.50;;;20.30;60.20;;;;;;5031418;28;20025;-74
2023/10/24 11:40:40;;;;;;;0.40;0.40;;;20.30;60.20;;;;;;5032784;28;20029;-75
2023/10/24 11:43:06;;;;;;;0.40;0.40;;;20.30;59.80;;;;;;5032180;28;20489;-76
2023/10/24 11:45:33;;;;;;;0.40;0.40;;;20.40;59.60;;;;;;5032549;28;20045;-74
2023/10/24 11:47:59;;;;;;;0.40;0.40;;;20.40;59.70;;;;;;5046806;28;20029;-74
2023/10/24 11:50:38;;;;;;;0.50;0.50;;;20.50;59.60;;;;;;5052354;28;20563;-73
2023/10/24 11:53:04;;;;;;;0.40;0.40;;;20.60;59.20;;;;;;5042639;28;20032;-73
2023/10/24 11:55:31;;;;;;;0.50;0.50;;;20.60;59.70;;;;;;5032470;28;20130;-72
2023/10/24 11:58:00;;;;;;;0.47;0.47;;;20.70;57.80;;;;;;5032122;28;20030;-72
2023/10/24 12:00:33;;;;;;;0.40;0.40;;;20.70;58.20;;;;;;5051172;28;20472;-72
2023/10/24 12:03:04;;;;;;;0.90;0.88;;;20.60;57.50;;;;;;5051730;28;20029;-70
2023/10/24 12:05:30;;;;;;;0.47;0.47;;;20.60;57.30;;;;;;5045879;28;20116;-70
2023/10/24 12:07:57;;;;;;;0.40;0.40;;;20.50;57.20;;;;;;5030257;28;20025;-70
2023/10/24 12:10:22;;;;;;;0.40;0.40;;;20.50;57.60;;;;;;5031842;28;20078;-70
2023/10/24 12:12:48;;;;;;;0.50;0.50;;;20.50;58.20;;;;;;5036346;28;20432;-69
2023/10/24 12:15:17;;;;;;;0.32;0.32;;;20.50;58.60;;;;;;5031453;28;20068;-70
2023/10/24 12:17:46;;;;;;;0.40;0.40;;;20.50;58.10;;;;;;5030605;28;20032;-70
2023/10/24 12:20:15;;;;;;;0.52;0.52;;;20.50;57.80;;;;;;5031457;28;20032;-70
2023/10/24 12:22:43;;;;;;;0.52;0.52;;;20.40;57.80;;;;;;5031381;28;20032;-70
2023/10/24 12:25:08;;;;;;;0.50;0.50;;;20.50;58.20;;;;;;5046968;28;20029;-69
2023/10/24 12:27:34;;;;;;;0.40;0.40;;;20.50;58.30;;;;;;5032071;28;20116;-70
2023/10/24 12:29:59;;;;;;;0.47;0.47;;;20.50;57.60;;;;;;5031060;28;20057;-70
2023/10/24 12:32:25;;;;;;;0.40;0.40;;;20.50;57.80;;;;;;5030713;28;20469;-70
2023/10/24 12:34:51;;;;;;;0.40;0.40;;;20.40;57.50;;;;;;5031148;28;20078;-70
2023/10/24 12:37:16;;;;;;;0.80;0.80;;;20.40;57.70;;;;;;5030637;28;20124;-70
2023/10/24 12:39:46;;;;;;;0.30;0.30;;;20.50;57.60;;;;;;5031270;28;20017;-71
2023/10/24 12:42:11;;;;;;;0.40;0.40;;;20.50;57.30;;;;;;5031525;28;20025;-70
2023/10/24 12:44:37;;;;;;;0.55;0.55;;;20.50;57.30;;;;;;5043028;28;20032;-71
2023/10/24 12:47:03;;;;;;;0.55;0.55;;;20.40;56.30;;;;;;5049461;28;20075;-71